Time;durP1;ratioP1;P1;durP2;ratioP2;P2;SDS_P1;SDS_P2;PMS_P1;PMS_P2;Temp;Humidity;BMP_temperature;BMP_pressure;BME280_temperature;BME280_humidity;BME280_pressure;Samples;Min_cycle;Max_cycle;Signal;HPM_P1;HPM_P2
2021/08/11 00:01:47;;;;;;;14.35;11.52;;;;;;;;;;143741;578;46022;-63
2021/08/11 00:04:14;;;;;;;16.45;12.15;;;;;;;;;;143738;585;47012;-62
2021/08/11 00:06:41;;;;;;;15.60;11.93;;;;;;;;;;143739;639;46020;-63
2021/08/11 00:09:09;;;;;;;13.15;11.40;;;;;;;;;;143740;590;46020;-63
2021/08/11 00:11:36;;;;;;;15.85;12.35;;;;;;;;;;143741;613;46022;-61
2021/08/11 00:14:04;;;;;;;15.88;11.63;;;;;;;;;;143739;571;46020;-62
2021/08/11 00:16:32;;;;;;;14.63;11.55;;;;;;;;;;143737;661;46020;-63
2021/08/11 00:18:59;;;;;;;17.17;12.73;;;;;;;;;;143741;614;46020;-63
2021/08/11 00:21:26;;;;;;;14.50;12.25;;;;;;;;;;143737;566;46023;-63
2021/08/11 00:23:53;;;;;;;14.13;12.23;;;;;;;;;;143740;600;46020;-62
2021/08/11 00:26:21;;;;;;;20.62;13.82;;;;;;;;;;143738;573;46020;-61
2021/08/11 00:28:48;;;;;;;16.30;13.15;;;;;;;;;;143742;606;46021;-63
2021/08/11 00:31:15;;;;;;;14.82;13.00;;;;;;;;;;143742;611;46020;-61
2021/08/11 00:33:42;;;;;;;14.20;12.15;;;;;;;;;;143735;564;47013;-63
2021/08/11 00:36:10;;;;;;;15.43;13.80;;;;;;;;;;143740;588;46021;-62
2021/08/11 00:38:37;;;;;;;15.02;12.63;;;;;;;;;;143742;571;46020;-63
2021/08/11 00:41:04;;;;;;;16.17;13.15;;;;;;;;;;143741;609;46022;-62
2021/08/11 00:43:31;;;;;;;17.52;14.50;;;;;;;;;;143740;567;46020;-62
2021/08/11 00:49:19;;;;;;;13.48;12.00;;;;;;;;;;143743;661;46022;-62
2021/08/11 00:51:46;;;;;;;15.32;12.23;;;;;;;;;;143741;659;46023;-62
2021/08/11 00:54:15;;;;;;;15.95;12.65;;;;;;;;;;143738;569;46020;-62
2021/08/11 00:56:52;;;;;;;15.30;12.57;;;;;;;;;;143740;578;46020;-62
2021/08/11 00:59:21;;;;;;;17.62;12.65;;;;;;;;;;143745;640;46020;-62
2021/08/11 01:01:49;;;;;;;17.05;12.85;;;;;;;;;;143741;596;46031;-62
2021/08/11 01:04:18;;;;;;;16.58;13.82;;;;;;;;;;143738;614;46021;-62
2021/08/11 01:06:45;;;;;;;18.80;13.40;;;;;;;;;;143741;569;46020;-62
2021/08/11 01:09:17;;;;;;;14.75;12.75;;;;;;;;;;143744;570;46020;-62
2021/08/11 01:11:45;;;;;;;14.70;12.57;;;;;;;;;;143739;610;47022;-62
2021/08/11 01:14:14;;;;;;;14.95;12.68;;;;;;;;;;143741;627;46020;-62
2021/08/11 01:16:42;;;;;;;13.90;12.27;;;;;;;;;;143741;660;46020;-62
2021/08/11 01:19:09;;;;;;;15.23;12.52;;;;;;;;;;143741;575;46020;-62
2021/08/11 01:22:06;;;;;;;22.73;13.95;;;;;;;;;;143742;589;46022;-62
2021/08/11 01:24:49;;;;;;;21.05;12.37;;;;;;;;;;143739;569;46020;-61
2021/08/11 01:27:57;;;;;;;12.90;11.40;;;;;;;;;;143738;569;46021;-62
2021/08/11 01:30:50;;;;;;;15.95;12.15;;;;;;;;;;143741;569;46022;-62
2021/08/11 01:33:47;;;;;;;15.02;13.13;;;;;;;;;;143741;640;46024;-62
2021/08/11 01:36:24;;;;;;;14.07;12.05;;;;;;;;;;143739;616;46020;-61
2021/08/11 01:39:39;;;;;;;14.13;12.70;;;;;;;;;;143741;582;46020;-62
2021/08/11 01:42:30;;;;;;;14.45;12.95;;;;;;;;;;143739;564;46020;-61
2021/08/11 01:45:24;;;;;;;13.60;12.20;;;;;;;;;;143740;566;46024;-62
2021/08/11 01:47:59;;;;;;;18.30;12.88;;;;;;;;;;143738;626;47013;-62
2021/08/11 01:50:30;;;;;;;15.13;11.95;;;;;;;;;;143739;582;47020;-61
2021/08/11 01:52:59;;;;;;;17.23;12.40;;;;;;;;;;143745;570;46020;-62
2021/08/11 01:55:26;;;;;;;14.48;12.40;;;;;;;;;;143741;597;46022;-61
2021/08/11 01:57:54;;;;;;;15.77;12.68;;;;;;;;;;143738;565;46020;-62
2021/08/11 02:00:24;;;;;;;19.83;13.02;;;;;;;;;;143739;569;46020;-62
2021/08/11 02:02:52;;;;;;;16.98;13.13;;;;;;;;;;143743;575;46020;-62
2021/08/11 02:05:24;;;;;;;16.27;13.50;;;;;;;;;;143742;592;46023;-61
2021/08/11 02:07:52;;;;;;;17.48;13.68;;;;;;;;;;143730;580;46020;-61
2021/08/11 02:10:20;;;;;;;16.10;12.85;;;;;;;;;;143738;583;46020;-62
2021/08/11 02:12:47;;;;;;;14.32;12.60;;;;;;;;;;143741;597;46021;-61
2021/08/11 02:15:14;;;;;;;14.60;13.07;;;;;;;;;;143741;581;46022;-61
2021/08/11 02:17:44;;;;;;;23.27;14.80;;;;;;;;;;143738;586;46020;-62
2021/08/11 02:20:13;;;;;;;17.55;13.25;;;;;;;;;;143738;573;46910;-62
2021/08/11 02:22:39;;;;;;;17.10;13.20;;;;;;;;;;143745;594;46020;-62
2021/08/11 02:25:11;;;;;;;18.62;13.18;;;;;;;;;;143740;569;47022;-61
2021/08/11 02:28:03;;;;;;;17.08;12.77;;;;;;;;;;143739;752;46021;-61
2021/08/11 02:31:04;;;;;;;22.10;16.10;;;;;;;;;;143739;625;46020;-61
2021/08/11 02:33:48;;;;;;;17.90;13.43;;;;;;;;;;143741;590;46020;-62
2021/08/11 02:36:24;;;;;;;18.87;12.65;;;;;;;;;;143742;609;46022;-61
2021/08/11 02:38:54;;;;;;;17.87;14.40;;;;;;;;;;143739;611;46020;-61
2021/08/11 02:41:32;;;;;;;19.45;14.50;;;;;;;;;;143739;564;46020;-61
2021/08/11 02:44:25;;;;;;;24.17;15.70;;;;;;;;;;143744;583;46020;-63
2021/08/11 02:46:53;;;;;;;22.35;15.68;;;;;;;;;;143741;574;46022;-61
2021/08/11 02:49:27;;;;;;;21.08;14.77;;;;;;;;;;143741;592;46021;-62
2021/08/11 02:51:58;;;;;;;21.23;14.63;;;;;;;;;;143737;652;46020;-62
2021/08/11 02:54:27;;;;;;;16.05;13.85;;;;;;;;;;143742;578;46020;-61
2021/08/11 02:56:55;;;;;;;15.73;13.77;;;;;;;;;;143742;585;46023;-62
2021/08/11 02:59:24;;;;;;;16.05;12.98;;;;;;;;;;143739;566;46020;-62
2021/08/11 03:01:52;;;;;;;19.17;13.85;;;;;;;;;;143741;612;46020;-62
2021/08/11 03:04:19;;;;;;;19.02;13.95;;;;;;;;;;143741;564;46021;-62
2021/08/11 03:06:46;;;;;;;20.50;15.60;;;;;;;;;;143740;618;47020;-62
2021/08/11 03:09:14;;;;;;;22.95;15.05;;;;;;;;;;143738;579;46020;-61
2021/08/11 03:11:41;;;;;;;15.88;13.30;;;;;;;;;;143738;625;46021;-61
2021/08/11 03:14:12;;;;;;;23.02;14.50;;;;;;;;;;143747;613;46020;-62
2021/08/11 03:16:40;;;;;;;20.88;14.90;;;;;;;;;;143741;570;46022;-62
2021/08/11 03:19:07;;;;;;;17.40;13.90;;;;;;;;;;143739;574;46021;-61
2021/08/11 03:21:36;;;;;;;30.40;14.30;;;;;;;;;;143738;618;46020;-62
2021/08/11 03:24:04;;;;;;;20.80;14.77;;;;;;;;;;143744;609;46020;-62
2021/08/11 03:26:31;;;;;;;32.95;16.20;;;;;;;;;;143741;585;46050;-62
2021/08/11 03:29:01;;;;;;;23.83;16.30;;;;;;;;;;143738;576;46020;-62
2021/08/11 03:31:29;;;;;;;17.95;14.77;;;;;;;;;;143738;574;46020;-62
2021/08/11 03:33:57;;;;;;;17.55;14.48;;;;;;;;;;143743;644;46021;-62
2021/08/11 03:36:24;;;;;;;20.98;14.70;;;;;;;;;;143742;616;46022;-62
2021/08/11 03:38:51;;;;;;;21.48;14.68;;;;;;;;;;143738;577;46020;-62
2021/08/11 03:41:19;;;;;;;23.83;16.33;;;;;;;;;;143737;580;46020;-61
2021/08/11 03:43:46;;;;;;;26.98;16.70;;;;;;;;;;143741;620;47020;-62
2021/08/11 03:46:13;;;;;;;20.58;15.52;;;;;;;;;;143741;583;46021;-62
2021/08/11 03:48:40;;;;;;;18.65;14.02;;;;;;;;;;143741;587;46029;-61
2021/08/11 03:51:07;;;;;;;20.50;14.70;;;;;;;;;;143739;571;46020;-61
2021/08/11 03:53:34;;;;;;;21.40;14.68;;;;;;;;;;143743;608;46020;-61
2021/08/11 03:56:01;;;;;;;23.33;14.93;;;;;;;;;;143742;569;46023;-62
2021/08/11 03:58:28;;;;;;;20.23;13.73;;;;;;;;;;143739;566;46020;-62
2021/08/11 04:00:56;;;;;;;26.75;17.12;;;;;;;;;;143739;620;46020;-61
2021/08/11 04:03:23;;;;;;;35.55;17.70;;;;;;;;;;143743;579;46021;-62
2021/08/11 04:05:50;;;;;;;34.28;16.67;;;;;;;;;;143735;580;47020;-62
2021/08/11 04:08:17;;;;;;;29.75;18.40;;;;;;;;;;143738;630;46914;-61
2021/08/11 04:10:45;;;;;;;41.63;19.15;;;;;;;;;;143741;566;46021;-62
2021/08/11 04:13:18;;;;;;;33.10;17.75;;;;;;;;;;143741;569;46020;-62
2021/08/11 04:15:46;;;;;;;78.20;44.33;;;;;;;;;;143742;586;46022;-61
2021/08/11 04:18:13;;;;;;;61.33;33.13;;;;;;;;;;143739;586;46021;-62
2021/08/11 04:20:40;;;;;;;36.10;24.12;;;;;;;;;;143739;584;46020;-62
2021/08/11 04:23:07;;;;;;;41.55;28.38;;;;;;;;;;143743;589;46020;-62
2021/08/11 04:25:39;;;;;;;64.53;37.97;;;;;;;;;;143743;634;46022;-61
2021/08/11 04:28:07;;;;;;;55.58;31.00;;;;;;;;;;143738;613;47012;-62
2021/08/11 04:30:34;;;;;;;76.90;36.72;;;;;;;;;;143737;579;46020;-62
2021/08/11 04:33:01;;;;;;;56.42;30.62;;;;;;;;;;143742;594;46020;-62
2021/08/11 04:35:28;;;;;;;37.33;23.02;;;;;;;;;;143742;598;46022;-62
2021/08/11 04:37:55;;;;;;;59.20;38.78;;;;;;;;;;143739;605;46020;-62
2021/08/11 04:40:23;;;;;;;69.72;56.47;;;;;;;;;;143738;629;46020;-63
2021/08/11 04:42:50;;;;;;;64.37;54.00;;;;;;;;;;143741;626;46020;-63
2021/08/11 04:45:17;;;;;;;59.17;42.95;;;;;;;;;;143741;577;46022;-61
2021/08/11 04:47:44;;;;;;;60.53;45.60;;;;;;;;;;143738;640;46021;-62
2021/08/11 04:50:11;;;;;;;44.78;29.75;;;;;;;;;;143739;585;46020;-62
2021/08/11 04:52:39;;;;;;;43.95;30.20;;;;;;;;;;143741;569;46020;-61
2021/08/11 04:55:06;;;;;;;41.55;29.52;;;;;;;;;;143741;572;46022;-62
2021/08/11 04:57:33;;;;;;;34.80;23.05;;;;;;;;;;143739;572;46020;-64
2021/08/11 05:00:01;;;;;;;37.70;27.52;;;;;;;;;;143738;608;46020;-62
2021/08/11 05:02:28;;;;;;;39.75;24.02;;;;;;;;;;143741;615;46020;-62
2021/08/11 05:04:54;;;;;;;37.67;26.27;;;;;;;;;;143741;675;46023;-61
2021/08/11 05:07:22;;;;;;;43.83;28.00;;;;;;;;;;143739;575;46020;-62
2021/08/11 05:09:49;;;;;;;38.92;24.15;;;;;;;;;;143740;612;46020;-61
2021/08/11 05:12:16;;;;;;;45.25;21.05;;;;;;;;;;143740;578;46020;-61
2021/08/11 05:14:43;;;;;;;40.03;24.10;;;;;;;;;;143741;687;46022;-61
2021/08/11 05:17:10;;;;;;;44.47;21.52;;;;;;;;;;143738;685;46021;-61
2021/08/11 05:19:37;;;;;;;39.40;21.05;;;;;;;;;;143735;590;46020;-61
2021/08/11 05:22:04;;;;;;;36.22;20.42;;;;;;;;;;143742;673;46020;-61
2021/08/11 05:24:31;;;;;;;48.28;22.58;;;;;;;;;;143741;572;46051;-61
2021/08/11 05:26:58;;;;;;;37.20;20.88;;;;;;;;;;143738;588;46020;-60
2021/08/11 05:29:25;;;;;;;46.25;23.65;;;;;;;;;;143738;606;46020;-60
2021/08/11 05:31:52;;;;;;;49.60;23.42;;;;;;;;;;143741;570;46020;-60
2021/08/11 05:34:19;;;;;;;41.83;23.08;;;;;;;;;;143740;588;47020;-60
2021/08/11 05:36:47;;;;;;;45.53;21.50;;;;;;;;;;143737;579;47012;-60
2021/08/11 05:39:14;;;;;;;37.88;21.87;;;;;;;;;;143739;619;46020;-59
2021/08/11 05:41:41;;;;;;;38.92;21.73;;;;;;;;;;143744;624;46021;-60
2021/08/11 05:44:08;;;;;;;43.33;21.77;;;;;;;;;;143741;585;46022;-60
2021/08/11 05:46:35;;;;;;;41.35;21.30;;;;;;;;;;143738;584;46914;-59
2021/08/11 05:49:04;;;;;;;45.70;19.83;;;;;;;;;;143738;589;46021;-59
2021/08/11 05:51:34;;;;;;;38.45;20.75;;;;;;;;;;143741;564;46020;-59
2021/08/11 05:54:04;;;;;;;30.73;19.98;;;;;;;;;;143741;588;47021;-59
2021/08/11 05:56:32;;;;;;;23.67;19.55;;;;;;;;;;143740;616;46020;-60
2021/08/11 05:59:00;;;;;;;32.30;18.67;;;;;;;;;;143739;597;46020;-59
2021/08/11 06:01:27;;;;;;;30.92;19.48;;;;;;;;;;143742;606;46020;-59
2021/08/11 06:03:58;;;;;;;25.77;18.15;;;;;;;;;;143742;586;46023;-60
2021/08/11 06:06:25;;;;;;;29.63;18.10;;;;;;;;;;143741;626;46020;-60
2021/08/11 06:08:53;;;;;;;25.98;17.65;;;;;;;;;;143740;608;46020;-59
2021/08/11 06:11:20;;;;;;;27.77;18.52;;;;;;;;;;143745;607;46021;-60
2021/08/11 06:13:48;;;;;;;30.08;18.75;;;;;;;;;;143742;642;46022;-59
2021/08/11 06:16:15;;;;;;;27.17;18.70;;;;;;;;;;143739;567;47017;-59
2021/08/11 06:18:42;;;;;;;22.10;17.42;;;;;;;;;;143739;572;46021;-59
2021/08/11 06:21:09;;;;;;;26.45;17.95;;;;;;;;;;143741;585;46020;-60
2021/08/11 06:23:36;;;;;;;24.77;17.98;;;;;;;;;;143742;579;46022;-59
2021/08/11 06:26:03;;;;;;;23.23;18.98;;;;;;;;;;143739;603;46021;-59
2021/08/11 06:28:30;;;;;;;26.48;17.70;;;;;;;;;;143739;612;46020;-59
2021/08/11 06:30:57;;;;;;;27.23;18.25;;;;;;;;;;143742;597;46020;-59
2021/08/11 06:33:24;;;;;;;26.95;18.67;;;;;;;;;;143740;596;46031;-59
2021/08/11 06:35:51;;;;;;;24.85;18.45;;;;;;;;;;143740;588;46029;-58
2021/08/11 06:38:18;;;;;;;28.98;19.48;;;;;;;;;;143736;609;46020;-58
2021/08/11 06:40:45;;;;;;;31.35;18.35;;;;;;;;;;143741;655;46021;-59
2021/08/11 06:43:12;;;;;;;21.40;18.00;;;;;;;;;;143739;645;47022;-58
2021/08/11 06:45:39;;;;;;;25.17;18.77;;;;;;;;;;143739;598;46021;-59
2021/08/11 06:48:06;;;;;;;25.62;18.48;;;;;;;;;;143739;609;46021;-58
2021/08/11 06:50:33;;;;;;;25.95;16.62;;;;;;;;;;143741;647;46020;-58
2021/08/11 06:53:00;;;;;;;26.05;17.40;;;;;;;;;;143740;678;47022;-58
2021/08/11 06:55:27;;;;;;;25.12;17.80;;;;;;;;;;143738;637;46021;-59
2021/08/11 06:57:54;;;;;;;23.85;18.62;;;;;;;;;;143740;589;46020;-58
2021/08/11 07:00:21;;;;;;;23.55;17.20;;;;;;;;;;143741;583;46020;-58
2021/08/11 07:02:48;;;;;;;25.88;17.17;;;;;;;;;;143742;593;46023;-59
2021/08/11 07:05:16;;;;;;;23.38;17.40;;;;;;;;;;143739;564;46020;-58
2021/08/11 07:07:43;;;;;;;24.52;17.90;;;;;;;;;;143740;645;46020;-58
2021/08/11 07:10:12;;;;;;;28.50;17.98;;;;;;;;;;143742;569;46021;-58
2021/08/11 07:12:40;;;;;;;22.80;17.12;;;;;;;;;;143743;655;46052;-58
2021/08/11 07:15:08;;;;;;;27.20;17.35;;;;;;;;;;143737;572;47013;-58
2021/08/11 07:17:35;;;;;;;18.52;16.20;;;;;;;;;;143740;652;46021;-59
2021/08/11 07:20:10;;;;;;;21.37;16.02;;;;;;;;;;143743;571;46020;-59
2021/08/11 07:22:37;;;;;;;22.52;15.80;;;;;;;;;;143743;587;46022;-59
2021/08/11 07:25:04;;;;;;;17.73;15.25;;;;;;;;;;143741;621;46021;-58
2021/08/11 07:27:31;;;;;;;23.70;14.93;;;;;;;;;;143738;565;46020;-58
2021/08/11 07:29:58;;;;;;;17.17;14.57;;;;;;;;;;143741;589;46020;-59
2021/08/11 07:32:25;;;;;;;19.10;15.30;;;;;;;;;;143742;625;46023;-59
2021/08/11 07:34:52;;;;;;;18.58;14.87;;;;;;;;;;143740;571;46020;-59
2021/08/11 07:37:19;;;;;;;18.35;14.95;;;;;;;;;;143739;565;46020;-59
2021/08/11 07:39:46;;;;;;;18.08;15.50;;;;;;;;;;143743;570;46021;-59
2021/08/11 07:42:13;;;;;;;17.62;15.20;;;;;;;;;;143741;612;46022;-59
2021/08/11 07:44:40;;;;;;;17.20;14.82;;;;;;;;;;143740;583;46020;-59
2021/08/11 07:47:06;;;;;;;17.98;14.87;;;;;;;;;;143741;582;46020;-59
2021/08/11 07:49:33;;;;;;;18.50;14.70;;;;;;;;;;143745;567;46020;-59
2021/08/11 07:52:00;;;;;;;20.25;15.52;;;;;;;;;;143740;603;47022;-60
2021/08/11 07:54:27;;;;;;;18.70;15.85;;;;;;;;;;143740;570;46021;-59
2021/08/11 07:56:54;;;;;;;18.20;15.20;;;;;;;;;;143742;594;46020;-59
2021/08/11 07:59:21;;;;;;;18.08;15.13;;;;;;;;;;143741;638;46020;-59
2021/08/11 08:01:48;;;;;;;16.62;14.60;;;;;;;;;;143743;584;47021;-60
2021/08/11 08:04:15;;;;;;;18.75;15.55;;;;;;;;;;143741;595;46029;-60
2021/08/11 08:06:42;;;;;;;20.98;14.87;;;;;;;;;;143741;582;46020;-58
2021/08/11 08:09:09;;;;;;;17.50;14.48;;;;;;;;;;143742;587;46021;-59
2021/08/11 08:11:36;;;;;;;20.67;14.57;;;;;;;;;;143743;571;46023;-59
2021/08/11 08:14:03;;;;;;;20.08;15.20;;;;;;;;;;143739;593;46020;-59
2021/08/11 08:16:30;;;;;;;16.50;14.80;;;;;;;;;;143739;567;46021;-59
2021/08/11 08:18:57;;;;;;;20.37;15.05;;;;;;;;;;143741;564;46020;-58
2021/08/11 08:21:23;;;;;;;24.75;14.40;;;;;;;;;;143736;575;47014;-59
2021/08/11 08:23:51;;;;;;;24.63;15.52;;;;;;;;;;143739;574;46914;-59
2021/08/11 08:26:18;;;;;;;22.62;14.50;;;;;;;;;;143741;642;46020;-58
2021/08/11 08:28:48;;;;;;;17.08;15.20;;;;;;;;;;143743;568;46020;-58
2021/08/11 08:31:16;;;;;;;22.00;15.40;;;;;;;;;;143743;583;47021;-58
2021/08/11 08:33:43;;;;;;;21.77;16.37;;;;;;;;;;143740;569;46032;-59
2021/08/11 08:36:13;;;;;;;23.50;16.15;;;;;;;;;;143740;591;46020;-59
2021/08/11 08:38:40;;;;;;;20.60;15.73;;;;;;;;;;143747;627;47020;-59
2021/08/11 08:41:07;;;;;;;22.95;16.40;;;;;;;;;;143742;592;46022;-59
2021/08/11 08:43:34;;;;;;;17.45;15.38;;;;;;;;;;143742;564;46020;-59
2021/08/11 08:46:01;;;;;;;16.42;14.63;;;;;;;;;;143732;590;46020;-59
2021/08/11 08:48:28;;;;;;;21.17;15.93;;;;;;;;;;143744;592;46020;-59
2021/08/11 08:50:57;;;;;;;16.92;14.73;;;;;;;;;;143744;629;46022;-59
2021/08/11 08:53:24;;;;;;;19.50;15.45;;;;;;;;;;143742;595;46029;-59
2021/08/11 08:55:54;;;;;;;17.27;15.48;;;;;;;;;;143739;605;46021;-59
2021/08/11 08:58:21;;;;;;;17.98;15.57;;;;;;;;;;143745;599;46020;-58
2021/08/11 09:00:48;;;;;;;22.85;15.82;;;;;;;;;;143743;581;46022;-59
2021/08/11 09:03:16;;;;;;;24.80;15.60;;;;;;;;;;143742;586;46020;-59
2021/08/11 09:05:43;;;;;;;19.33;16.00;;;;;;;;;;143740;566;46020;-59
2021/08/11 09:08:10;;;;;;;18.35;16.37;;;;;;;;;;143744;584;46020;-59
2021/08/11 09:10:39;;;;;;;25.33;16.77;;;;;;;;;;143744;627;46023;-58
2021/08/11 09:13:22;;;;;;;30.08;16.17;;;;;;;;;;143739;579;46020;-59
2021/08/11 09:15:52;;;;;;;23.00;15.80;;;;;;;;;;143741;616;46020;-59
2021/08/11 09:18:29;;;;;;;19.48;16.33;;;;;;;;;;143744;569;46020;-59
2021/08/11 09:21:22;;;;;;;17.67;15.65;;;;;;;;;;143742;629;46030;-59
2021/08/11 09:23:49;;;;;;;17.10;15.40;;;;;;;;;;143739;575;46074;-59
2021/08/11 09:26:17;;;;;;;18.50;15.95;;;;;;;;;;143742;583;46020;-60
2021/08/11 09:28:47;;;;;;;18.40;15.43;;;;;;;;;;143747;571;46020;-59
2021/08/11 09:31:30;;;;;;;20.15;13.62;;;;;;;;;;143742;569;46022;-60
2021/08/11 09:34:02;;;;;;;15.73;14.02;;;;;;;;;;143741;615;46914;-60
2021/08/11 09:36:48;;;;;;;15.45;12.85;;;;;;;;;;143739;565;46020;-60
2021/08/11 09:39:16;;;;;;;17.70;15.60;;;;;;;;;;143744;607;46021;-60
2021/08/11 09:42:02;;;;;;;18.90;14.07;;;;;;;;;;143743;593;46022;-60
2021/08/11 09:44:30;;;;;;;18.08;15.32;;;;;;;;;;143741;626;46020;-61
2021/08/11 09:47:16;;;;;;;15.73;13.98;;;;;;;;;;143740;578;46021;-61
2021/08/11 09:50:11;;;;;;;22.30;15.65;;;;;;;;;;143744;577;46020;-61
2021/08/11 09:52:52;;;;;;;17.30;14.13;;;;;;;;;;143743;617;46022;-61
2021/08/11 09:55:20;;;;;;;22.92;13.77;;;;;;;;;;143741;579;46020;-61
2021/08/11 09:57:47;;;;;;;18.08;12.55;;;;;;;;;;143740;731;46020;-61
2021/08/11 10:00:15;;;;;;;19.92;12.35;;;;;;;;;;143744;611;46020;-61
2021/08/11 10:02:42;;;;;;;15.88;11.00;;;;;;;;;;143738;570;47020;-61
2021/08/11 10:05:30;;;;;;;17.70;13.18;;;;;;;;;;143741;564;46020;-61
2021/08/11 10:07:56;;;;;;;19.48;13.38;;;;;;;;;;143742;594;46020;-62
2021/08/11 10:10:24;;;;;;;20.88;12.95;;;;;;;;;;143742;564;46021;-61
2021/08/11 10:12:52;;;;;;;23.15;12.95;;;;;;;;;;143743;599;47020;-61
2021/08/11 10:15:20;;;;;;;21.52;13.00;;;;;;;;;;143743;587;46029;-61
2021/08/11 10:17:51;;;;;;;18.87;12.98;;;;;;;;;;143741;641;46021;-61
2021/08/11 10:20:22;;;;;;;18.62;12.43;;;;;;;;;;143745;584;46020;-61
2021/08/11 10:22:49;;;;;;;20.83;12.18;;;;;;;;;;143743;591;47021;-61
2021/08/11 10:25:16;;;;;;;17.83;12.20;;;;;;;;;;143741;639;46020;-61
2021/08/11 10:27:44;;;;;;;14.57;12.13;;;;;;;;;;143740;602;46020;-61
2021/08/11 10:30:13;;;;;;;20.55;12.02;;;;;;;;;;143746;586;46020;-61
2021/08/11 10:32:40;;;;;;;16.48;11.38;;;;;;;;;;143744;592;46023;-64
2021/08/11 10:35:08;;;;;;;15.70;11.68;;;;;;;;;;143742;638;46020;-61
2021/08/11 10:37:36;;;;;;;12.73;11.40;;;;;;;;;;143741;597;46020;-60
2021/08/11 10:40:04;;;;;;;17.77;11.90;;;;;;;;;;143742;573;46020;-61
2021/08/11 10:42:31;;;;;;;17.00;12.50;;;;;;;;;;143741;615;47020;-61
2021/08/11 10:45:01;;;;;;;14.95;13.20;;;;;;;;;;143739;599;46021;-62
2021/08/11 10:47:33;;;;;;;20.55;14.35;;;;;;;;;;143741;580;46020;-61
2021/08/11 10:50:07;;;;;;;19.90;14.57;;;;;;;;;;143745;593;46020;-61
2021/08/11 10:52:34;;;;;;;15.88;13.75;;;;;;;;;;143743;586;46052;-61
2021/08/11 10:55:03;;;;;;;16.20;12.25;;;;;;;;;;143736;584;46020;-61
2021/08/11 10:57:44;;;;;;;15.93;13.93;;;;;;;;;;143742;563;46020;-61
2021/08/11 11:00:42;;;;;;;17.60;14.45;;;;;;;;;;143744;678;46020;-62
2021/08/11 11:03:10;;;;;;;17.35;14.82;;;;;;;;;;143743;569;46024;-63
2021/08/11 11:05:52;;;;;;;18.20;14.50;;;;;;;;;;143738;681;47012;-62
2021/08/11 11:08:32;;;;;;;18.58;12.85;;;;;;;;;;143740;564;46020;-62
2021/08/11 11:11:34;;;;;;;15.35;12.00;;;;;;;;;;143746;573;46020;-63
2021/08/11 11:14:02;;;;;;;13.18;11.65;;;;;;;;;;143743;589;46022;-63
2021/08/11 11:17:03;;;;;;;20.75;11.82;;;;;;;;;;143739;616;46021;-62
2021/08/11 11:19:31;;;;;;;15.85;11.18;;;;;;;;;;143740;589;46020;-62
2021/08/11 11:22:18;;;;;;;13.35;10.25;;;;;;;;;;143743;586;46021;-62
2021/08/11 11:24:52;;;;;;;11.75;10.05;;;;;;;;;;143743;595;46023;-62
2021/08/11 11:28:02;;;;;;;12.15;10.73;;;;;;;;;;143741;570;46020;-64
2021/08/11 11:30:34;;;;;;;12.80;9.73;;;;;;;;;;143742;579;46021;-63
2021/08/11 11:33:38;;;;;;;13.98;9.77;;;;;;;;;;143743;577;46020;-63
2021/08/11 11:36:25;;;;;;;11.90;9.82;;;;;;;;;;143744;566;46022;-63
2021/08/11 11:39:15;;;;;;;13.52;10.95;;;;;;;;;;143743;564;46020;-63
2021/08/11 11:42:29;;;;;;;10.93;9.68;;;;;;;;;;143740;581;46020;-64
2021/08/11 11:45:02;;;;;;;;;;;;;;;;;;143747;981;46021;-63
2021/08/11 11:48:06;;;;;;;16.65;12.95;;;;;;;;;;143746;584;47023;-63
2021/08/11 11:50:35;;;;;;;14.77;12.10;;;;;;;;;;143740;585;47012;-63
2021/08/11 11:53:06;;;;;;;12.13;10.77;;;;;;;;;;143741;570;46021;-64
2021/08/11 11:55:38;;;;;;;18.00;12.73;;;;;;;;;;143746;585;46020;-63
2021/08/11 11:58:19;;;;;;;18.67;14.70;;;;;;;;;;143742;572;47020;-63
2021/08/11 12:01:04;;;;;;;18.62;12.80;;;;;;;;;;143739;570;46021;-63
2021/08/11 12:03:50;;;;;;;21.35;16.77;;;;;;;;;;143740;569;46020;-63
2021/08/11 12:06:36;;;;;;;21.05;14.70;;;;;;;;;;143745;607;46020;-64
2021/08/11 12:09:04;;;;;;;16.48;13.00;;;;;;;;;;143743;571;46023;-64
2021/08/11 12:11:33;;;;;;;17.10;12.63;;;;;;;;;;143741;595;46020;-63
2021/08/11 12:14:01;;;;;;;15.60;13.00;;;;;;;;;;143741;656;46020;-64
2021/08/11 12:16:54;;;;;;;15.75;12.07;;;;;;;;;;143744;687;46020;-60
2021/08/11 12:19:21;;;;;;;18.00;12.00;;;;;;;;;;143740;620;47024;-64
2021/08/11 12:21:48;;;;;;;13.93;11.75;;;;;;;;;;143738;567;46021;-63
2021/08/11 12:24:16;;;;;;;14.27;11.38;;;;;;;;;;143738;648;46020;-62
2021/08/11 12:26:43;;;;;;;13.73;10.70;;;;;;;;;;143741;579;46020;-64
2021/08/11 12:29:21;;;;;;;14.45;10.18;;;;;;;;;;143741;590;46022;-63
2021/08/11 12:31:50;;;;;;;16.92;10.05;;;;;;;;;;143740;570;46020;-64
2021/08/11 12:34:18;;;;;;;12.45;9.02;;;;;;;;;;143739;665;46020;-63
2021/08/11 12:36:45;;;;;;;13.88;10.35;;;;;;;;;;143743;657;46020;-63
2021/08/11 12:39:17;;;;;;;12.52;9.32;;;;;;;;;;143740;647;46021;-64
2021/08/11 12:42:04;;;;;;;14.97;9.50;;;;;;;;;;143741;564;46020;-65
2021/08/11 12:44:31;;;;;;;13.35;9.00;;;;;;;;;;143739;692;46020;-64
2021/08/11 12:47:05;;;;;;;12.13;8.43;;;;;;;;;;143745;619;45020;-64
2021/08/11 12:49:40;;;;;;;15.48;8.30;;;;;;;;;;143741;606;46022;-64
2021/08/11 12:52:17;;;;;;;13.95;7.65;;;;;;;;;;143738;564;46023;-63
2021/08/11 12:55:05;;;;;;;12.25;8.02;;;;;;;;;;143738;564;46020;-65
2021/08/11 12:58:01;;;;;;;11.45;7.82;;;;;;;;;;143741;667;46020;-63
2021/08/11 13:00:44;;;;;;;10.00;8.18;;;;;;;;;;143741;564;46023;-63
2021/08/11 13:03:11;;;;;;;10.93;8.47;;;;;;;;;;143739;680;46020;-63
2021/08/11 13:05:54;;;;;;;12.45;9.45;;;;;;;;;;143737;569;46020;-63
2021/08/11 13:08:39;;;;;;;9.50;8.53;;;;;;;;;;143741;605;46021;-63
2021/08/11 13:11:06;;;;;;;13.20;8.77;;;;;;;;;;143741;563;46022;-62
2021/08/11 13:13:33;;;;;;;12.85;8.35;;;;;;;;;;143737;660;46021;-65
2021/08/11 13:16:14;;;;;;;13.65;8.65;;;;;;;;;;143738;640;46021;-65
2021/08/11 13:18:43;;;;;;;11.10;8.15;;;;;;;;;;143743;596;46020;-63
2021/08/11 13:21:10;;;;;;;10.63;9.02;;;;;;;;;;143741;597;46022;-63
2021/08/11 13:23:40;;;;;;;11.65;8.38;;;;;;;;;;143736;640;47012;-63
2021/08/11 13:26:07;;;;;;;11.52;8.43;;;;;;;;;;143739;604;46020;-63
2021/08/11 13:28:38;;;;;;;10.95;8.43;;;;;;;;;;143744;650;46020;-63
2021/08/11 13:31:07;;;;;;;12.05;8.23;;;;;;;;;;143739;570;47020;-63
2021/08/11 13:33:34;;;;;;;11.10;7.47;;;;;;;;;;143738;647;46020;-65
2021/08/11 13:36:01;;;;;;;13.00;8.57;;;;;;;;;;143740;590;46020;-64
2021/08/11 13:38:29;;;;;;;11.35;7.70;;;;;;;;;;143742;578;46021;-63
2021/08/11 13:40:55;;;;;;;12.00;7.65;;;;;;;;;;143735;616;47020;-64
2021/08/11 13:43:23;;;;;;;10.77;6.37;;;;;;;;;;143740;557;46021;-63
2021/08/11 13:45:50;;;;;;;10.95;7.10;;;;;;;;;;143739;681;46021;-63
2021/08/11 13:48:17;;;;;;;11.10;6.87;;;;;;;;;;143743;580;46020;-63
2021/08/11 13:50:44;;;;;;;8.23;7.05;;;;;;;;;;143741;687;46022;-63
2021/08/11 13:53:11;;;;;;;13.13;7.18;;;;;;;;;;143738;566;46021;-65
2021/08/11 13:55:38;;;;;;;8.55;7.50;;;;;;;;;;143740;636;46020;-64
2021/08/11 13:58:05;;;;;;;14.15;7.62;;;;;;;;;;143742;674;46020;-63
2021/08/11 14:00:33;;;;;;;8.77;7.32;;;;;;;;;;143741;580;46023;-63
2021/08/11 14:03:00;;;;;;;9.90;7.55;;;;;;;;;;143738;614;46020;-63
2021/08/11 14:05:27;;;;;;;13.27;7.70;;;;;;;;;;143738;625;46020;-63
2021/08/11 14:07:54;;;;;;;9.25;7.43;;;;;;;;;;143741;578;46021;-64
2021/08/11 14:10:22;;;;;;;10.63;7.45;;;;;;;;;;143741;660;46022;-63
2021/08/11 14:12:49;;;;;;;12.05;6.72;;;;;;;;;;143739;588;46021;-63
2021/08/11 14:15:16;;;;;;;9.15;6.40;;;;;;;;;;143737;573;46021;-65
2021/08/11 14:17:43;;;;;;;10.30;6.75;;;;;;;;;;143743;601;46020;-63
2021/08/11 14:20:10;;;;;;;9.63;5.85;;;;;;;;;;143742;632;46022;-62
2021/08/11 14:22:37;;;;;;;11.55;6.40;;;;;;;;;;143738;653;46021;-62
2021/08/11 14:25:05;;;;;;;12.02;6.43;;;;;;;;;;143738;673;46020;-64
2021/08/11 14:27:32;;;;;;;11.98;7.07;;;;;;;;;;143741;574;46020;-62
2021/08/11 14:29:59;;;;;;;8.30;6.53;;;;;;;;;;143742;657;46023;-63
2021/08/11 14:32:26;;;;;;;10.65;6.78;;;;;;;;;;143738;569;47020;-65
2021/08/11 14:34:53;;;;;;;12.25;6.90;;;;;;;;;;143738;648;46020;-64
2021/08/11 14:37:20;;;;;;;8.68;6.60;;;;;;;;;;143744;576;46021;-65
2021/08/11 14:39:47;;;;;;;13.48;6.85;;;;;;;;;;143740;571;46022;-63
2021/08/11 14:42:14;;;;;;;15.60;7.55;;;;;;;;;;143737;627;46020;-64
2021/08/11 14:44:41;;;;;;;10.45;6.85;;;;;;;;;;143738;576;46021;-62